PGT69CB LTFJ-LTBJ
Flight info
| Callsign | PGT69CB |
|---|---|
| Flight time | N/A |
| Altitude | 28000 |
| Route | ROXUK1J/06L ROXUK T409 NUMTI DCT KULAR |
| Aircraft | A20N/M-SDE2E3FGHIRWXY/LB1 |
Departure
| Time | N/A |
|---|---|
| Airport | Istanbul Sabiha Gökçen International Airport (LTFJ) |
Arrival
| Time | 2026-05-03 20:46 |
|---|---|
| Airport | Adnan Menderes International Airport (LTBJ) |
| Time | Latitude | Longitude | Altitude | Speed | Heading |
|---|---|---|---|---|---|
| 2026-05-03 20:15 | 39.68804 | 29.56052 | 27783 ft | 461 kts | 207° |
| 2026-05-03 20:15 | 39.66056 | 29.53918 | 27787 ft | 461 kts | 207° |
| 2026-05-03 20:15 | 39.63325 | 29.51733 | 27784 ft | 463 kts | 210° |
| 2026-05-03 20:15 | 39.60638 | 29.49440 | 27785 ft | 463 kts | 210° |
| 2026-05-03 20:16 | 39.57953 | 29.47142 | 27787 ft | 464 kts | 210° |
| 2026-05-03 20:16 | 39.55269 | 29.44845 | 27786 ft | 464 kts | 210° |
| 2026-05-03 20:16 | 39.52577 | 29.42542 | 27791 ft | 464 kts | 210° |
| 2026-05-03 20:16 | 39.49889 | 29.40245 | 27788 ft | 464 kts | 210° |
| 2026-05-03 20:17 | 39.47195 | 29.37950 | 27797 ft | 464 kts | 211° |
| 2026-05-03 20:17 | 39.44504 | 29.35657 | 27789 ft | 464 kts | 210° |
| 2026-05-03 20:17 | 39.41800 | 29.33355 | 27786 ft | 466 kts | 210° |
| 2026-05-03 20:17 | 39.39100 | 29.31058 | 27791 ft | 466 kts | 210° |
| 2026-05-03 20:18 | 39.36395 | 29.28761 | 27791 ft | 466 kts | 210° |
| 2026-05-03 20:18 | 39.33686 | 29.26463 | 27786 ft | 466 kts | 210° |
| 2026-05-03 20:18 | 39.30983 | 29.24171 | 27795 ft | 466 kts | 210° |
| 2026-05-03 20:18 | 39.28272 | 29.21875 | 27783 ft | 467 kts | 210° |
| 2026-05-03 20:19 | 39.25556 | 29.19576 | 27781 ft | 467 kts | 210° |
| 2026-05-03 20:19 | 39.22844 | 29.17284 | 27768 ft | 467 kts | 210° |
| 2026-05-03 20:19 | 39.20127 | 29.14989 | 27769 ft | 468 kts | 210° |
| 2026-05-03 20:19 | 39.17413 | 29.12698 | 27767 ft | 467 kts | 210° |
| 2026-05-03 20:20 | 39.14691 | 29.10404 | 27760 ft | 469 kts | 210° |
| 2026-05-03 20:20 | 39.11966 | 29.08109 | 27752 ft | 470 kts | 210° |
| 2026-05-03 20:20 | 39.09233 | 29.05809 | 27757 ft | 470 kts | 210° |
| 2026-05-03 20:20 | 39.06500 | 29.03511 | 27753 ft | 470 kts | 210° |
| 2026-05-03 20:21 | 39.03764 | 29.01211 | 27749 ft | 470 kts | 210° |
| 2026-05-03 20:21 | 39.01023 | 28.98912 | 27755 ft | 471 kts | 210° |
| 2026-05-03 20:21 | 38.98282 | 28.96615 | 27762 ft | 471 kts | 211° |
| 2026-05-03 20:21 | 38.95544 | 28.94321 | 27762 ft | 471 kts | 211° |
| 2026-05-03 20:22 | 38.92804 | 28.92029 | 27759 ft | 471 kts | 211° |
| 2026-05-03 20:22 | 38.90061 | 28.89735 | 27757 ft | 472 kts | 211° |
| 2026-05-03 20:22 | 38.87289 | 28.87420 | 27772 ft | 472 kts | 211° |
| 2026-05-03 20:22 | 38.84542 | 28.85127 | 27784 ft | 473 kts | 211° |
| 2026-05-03 20:23 | 38.81789 | 28.82832 | 27797 ft | 472 kts | 211° |
| 2026-05-03 20:23 | 38.79035 | 28.80539 | 27802 ft | 473 kts | 211° |
| 2026-05-03 20:23 | 38.76284 | 28.78248 | 27815 ft | 472 kts | 211° |
| 2026-05-03 20:23 | 38.73534 | 28.75962 | 27822 ft | 472 kts | 211° |
| 2026-05-03 20:24 | 38.70780 | 28.73674 | 27820 ft | 472 kts | 211° |
| 2026-05-03 20:24 | 38.68031 | 28.71393 | 27822 ft | 472 kts | 211° |
| 2026-05-03 20:24 | 38.65279 | 28.69111 | 27826 ft | 472 kts | 211° |
| 2026-05-03 20:24 | 38.62526 | 28.66832 | 27821 ft | 472 kts | 211° |
| 2026-05-03 20:25 | 38.59872 | 28.64361 | 27811 ft | 474 kts | 221° |
| 2026-05-03 20:25 | 38.57656 | 28.61258 | 27810 ft | 476 kts | 234° |
| 2026-05-03 20:25 | 38.55982 | 28.57654 | 27745 ft | 471 kts | 244° |
| 2026-05-03 20:25 | 38.54578 | 28.53901 | 27207 ft | 468 kts | 246° |
| 2026-05-03 20:26 | 38.53223 | 28.50130 | 26468 ft | 467 kts | 246° |
| 2026-05-03 20:26 | 38.51858 | 28.46349 | 25739 ft | 467 kts | 246° |
| 2026-05-03 20:26 | 38.50467 | 28.42561 | 24953 ft | 467 kts | 246° |
| 2026-05-03 20:26 | 38.49071 | 28.38819 | 24125 ft | 468 kts | 246° |
| 2026-05-03 20:27 | 38.47666 | 28.35076 | 23564 ft | 463 kts | 246° |
| 2026-05-03 20:27 | 38.46287 | 28.31366 | 22987 ft | 457 kts | 248° |
| 2026-05-03 20:27 | 38.45154 | 28.27594 | 22401 ft | 451 kts | 254° |
| 2026-05-03 20:27 | 38.44351 | 28.23768 | 21821 ft | 445 kts | 261° |
| 2026-05-03 20:28 | 38.43800 | 28.19929 | 21252 ft | 439 kts | 263° |
| 2026-05-03 20:28 | 38.43311 | 28.16122 | 20690 ft | 434 kts | 264° |
| 2026-05-03 20:28 | 38.42827 | 28.12312 | 20133 ft | 430 kts | 264° |
| 2026-05-03 20:28 | 38.42340 | 28.08530 | 19560 ft | 425 kts | 264° |
| 2026-05-03 20:29 | 38.41859 | 28.04844 | 18987 ft | 421 kts | 264° |
| 2026-05-03 20:29 | 38.41372 | 28.01159 | 18419 ft | 417 kts | 263° |
| 2026-05-03 20:29 | 38.40888 | 27.97528 | 17847 ft | 414 kts | 264° |
| 2026-05-03 20:29 | 38.40406 | 27.93943 | 17306 ft | 409 kts | 264° |
| 2026-05-03 20:30 | 38.39927 | 27.90397 | 16758 ft | 405 kts | 264° |
| 2026-05-03 20:30 | 38.39450 | 27.86859 | 16197 ft | 402 kts | 265° |
| 2026-05-03 20:30 | 38.38974 | 27.83338 | 15637 ft | 398 kts | 265° |
| 2026-05-03 20:30 | 38.38499 | 27.79830 | 15076 ft | 395 kts | 265° |
| 2026-05-03 20:31 | 38.38030 | 27.76381 | 14529 ft | 391 kts | 265° |
| 2026-05-03 20:31 | 38.37566 | 27.72971 | 14007 ft | 387 kts | 265° |
| 2026-05-03 20:31 | 38.37110 | 27.69612 | 13453 ft | 385 kts | 265° |
| 2026-05-03 20:31 | 38.36655 | 27.66278 | 12882 ft | 382 kts | 265° |
| 2026-05-03 20:32 | 38.36198 | 27.62954 | 12310 ft | 380 kts | 265° |
| 2026-05-03 20:32 | 38.35594 | 27.58561 | 11594 ft | 376 kts | 265° |
| 2026-05-03 20:32 | 38.35293 | 27.56374 | 11228 ft | 374 kts | 266° |
| 2026-05-03 20:32 | 38.34845 | 27.53136 | 10932 ft | 364 kts | 266° |
| 2026-05-03 20:33 | 38.34412 | 27.50021 | 10712 ft | 352 kts | 266° |
| 2026-05-03 20:33 | 38.33992 | 27.47004 | 10504 ft | 341 kts | 266° |
| 2026-05-03 20:33 | 38.33586 | 27.44082 | 10301 ft | 330 kts | 266° |
| 2026-05-03 20:33 | 38.33191 | 27.41243 | 10113 ft | 320 kts | 266° |
| 2026-05-03 20:34 | 38.32765 | 27.38496 | 9925 ft | 311 kts | 264° |
| 2026-05-03 20:34 | 38.32277 | 27.35826 | 9733 ft | 303 kts | 264° |
| 2026-05-03 20:34 | 38.31792 | 27.33226 | 9413 ft | 299 kts | 263° |
| 2026-05-03 20:34 | 38.31314 | 27.30655 | 9015 ft | 299 kts | 263° |
| 2026-05-03 20:35 | 38.30548 | 27.28182 | 8736 ft | 304 kts | 238° |
| 2026-05-03 20:35 | 38.28928 | 27.26474 | 8550 ft | 303 kts | 203° |
| 2026-05-03 20:35 | 38.26900 | 27.26066 | 8329 ft | 292 kts | 168° |
| 2026-05-03 20:35 | 38.24997 | 27.26821 | 8132 ft | 277 kts | 151° |
| 2026-05-03 20:36 | 38.23239 | 27.27782 | 7890 ft | 274 kts | 152° |
| 2026-05-03 20:36 | 38.21444 | 27.28643 | 7569 ft | 274 kts | 156° |
| 2026-05-03 20:36 | 38.19611 | 27.29364 | 7258 ft | 274 kts | 159° |
| 2026-05-03 20:36 | 38.17765 | 27.29981 | 6956 ft | 274 kts | 161° |
| 2026-05-03 20:37 | 38.15898 | 27.30552 | 6635 ft | 274 kts | 161° |
| 2026-05-03 20:37 | 38.14040 | 27.31106 | 6319 ft | 273 kts | 162° |
| 2026-05-03 20:37 | 38.12171 | 27.31661 | 6013 ft | 272 kts | 162° |
| 2026-05-03 20:37 | 38.10330 | 27.32200 | 5715 ft | 271 kts | 165° |
| 2026-05-03 20:38 | 38.08457 | 27.32202 | 5385 ft | 272 kts | 199° |
| 2026-05-03 20:38 | 38.06919 | 27.30920 | 5076 ft | 259 kts | 239° |
| 2026-05-03 20:38 | 38.06289 | 27.28913 | 4772 ft | 239 kts | 273° |
| 2026-05-03 20:38 | 38.06192 | 27.26841 | 4545 ft | 232 kts | 276° |
| 2026-05-03 20:39 | 38.06091 | 27.24803 | 4275 ft | 229 kts | 280° |
| 2026-05-03 20:39 | 38.06507 | 27.22998 | 3958 ft | 205 kts | 318° |
| 2026-05-03 20:39 | 38.07615 | 27.22015 | 3672 ft | 190 kts | 346° |
| 2026-05-03 20:39 | 38.08900 | 27.21687 | 3403 ft | 187 kts | 352° |
| 2026-05-03 20:40 | 38.10173 | 27.21364 | 3123 ft | 186 kts | 350° |
| 2026-05-03 20:40 | 38.11439 | 27.21026 | 2865 ft | 184 kts | 350° |
| 2026-05-03 20:40 | 38.12674 | 27.20679 | 2720 ft | 178 kts | 349° |
| 2026-05-03 20:40 | 38.13856 | 27.20333 | 2600 ft | 169 kts | 349° |
| 2026-05-03 20:41 | 38.14938 | 27.20007 | 2545 ft | 152 kts | 349° |
| 2026-05-03 20:41 | 38.15929 | 27.19708 | 2290 ft | 140 kts | 349° |
| 2026-05-03 20:41 | 38.16829 | 27.19436 | 2072 ft | 127 kts | 349° |
| 2026-05-03 20:41 | 38.17650 | 27.19187 | 2012 ft | 118 kts | 348° |
| 2026-05-03 20:42 | 38.18442 | 27.18947 | 1999 ft | 114 kts | 349° |
| 2026-05-03 20:42 | 38.19219 | 27.18713 | 1996 ft | 113 kts | 348° |
| 2026-05-03 20:42 | 38.19993 | 27.18480 | 1982 ft | 114 kts | 348° |
| 2026-05-03 20:42 | 38.20766 | 27.18247 | 1828 ft | 114 kts | 348° |
| 2026-05-03 20:43 | 38.21537 | 27.18013 | 1673 ft | 113 kts | 348° |
| 2026-05-03 20:43 | 38.22303 | 27.17782 | 1517 ft | 113 kts | 348° |
| 2026-05-03 20:43 | 38.23065 | 27.17553 | 1368 ft | 112 kts | 348° |
| 2026-05-03 20:43 | 38.23843 | 27.17319 | 1212 ft | 112 kts | 347° |
| 2026-05-03 20:44 | 38.24603 | 27.17090 | 1056 ft | 111 kts | 347° |
| 2026-05-03 20:44 | 38.25362 | 27.16877 | 912 ft | 111 kts | 347° |
| 2026-05-03 20:44 | 38.26113 | 27.16636 | 748 ft | 111 kts | 346° |
| 2026-05-03 20:44 | 38.26865 | 27.16401 | 615 ft | 111 kts | 347° |
| 2026-05-03 20:45 | 38.27619 | 27.16184 | 467 ft | 111 kts | 346° |
| 2026-05-03 20:45 | 38.28367 | 27.15956 | 396 ft | 105 kts | 346° |
| 2026-05-03 20:45 | 38.28969 | 27.15776 | 404 ft | 69 kts | 345° |
| 2026-05-03 20:45 | 38.29405 | 27.15647 | 406 ft | 58 kts | 347° |
| 2026-05-03 20:46 | 38.29701 | 27.15552 | 408 ft | 25 kts | 343° |
| 2026-05-03 20:46 | 38.29795 | 27.15475 | 409 ft | 14 kts | 320° |
| 2026-05-03 20:46 | 38.29870 | 27.15390 | 409 ft | 14 kts | 316° |
| 2026-05-03 20:46 | 38.29939 | 27.15307 | 409 ft | 10 kts | 317° |
| 2026-05-03 20:47 | 38.29986 | 27.15237 | 410 ft | 10 kts | 281° |
| 2026-05-03 20:47 | 38.29975 | 27.15151 | 409 ft | 9 kts | 257° |
| 2026-05-03 20:47 | 38.29958 | 27.15063 | 407 ft | 10 kts | 256° |
| 2026-05-03 20:47 | 38.29943 | 27.14988 | 407 ft | 6 kts | 250° |
| 2026-05-03 20:48 | 38.29901 | 27.14961 | 406 ft | 9 kts | 167° |
| 2026-05-03 20:48 | 38.29824 | 27.14985 | 404 ft | 13 kts | 166° |
| 2026-05-03 20:48 | 38.29725 | 27.15015 | 402 ft | 14 kts | 167° |
| 2026-05-03 20:48 | 38.29670 | 27.15038 | 402 ft | 6 kts | 139° |
| 2026-05-03 20:49 | 38.29665 | 27.15085 | 402 ft | 5 kts | 75° |
| 2026-05-03 20:49 | 38.29672 | 27.15121 | 402 ft | 2 kts | 76° |
| 2026-05-03 20:49 | 38.29672 | 27.15122 | 402 ft | 0 kts | 76° |